Terminal Aerodrome Forecast
Issued by NWS Melbourne, FL

Home | Current Version | Previous Version | Text Only | Print | Product List | Glossary On
Versions: 1 2 3 4 5 6 7 8 9 10 11 12 13 14 15 16 17 18 19 20 21 22 23 24 25 26
000
FTUS42 KMLB 292059 AAA
TAFMCO
TAF AMD
KMCO 292059Z 2921/3018 05014KT P6SM VCSH SCT040 SCT090
      TEMPO 2921/2924 -RA BKN050
     FM300200 05004KT P6SM FEW040
     FM301500 09010KT P6SM SCT035
      TEMPO 3015/3017 BKN035=

USA.gov is the U.S. government's official web portal to all federal, state and local government web resources and services.